Nearby METAR Reports

 

KHOB - Hobbs, New Mexico, USA
Distance from station: S 40mi, 65km
Updated: Wed, 29-Jan-2020 4:55am MST
Clear
Clear
 Wind from N
Wind: N 6 mph , 9 km/h
Temperature: 23°F , -5°C
Wind Chill: 16°F , -9°C
Dew Point: 18°F , -8°C
Humidity: 80%
Barometer: 30.09 inHg , 1019 hPa
Clouds: Clear
Visibility: 10 miles , 16 km
2020/01/29 11:55 KHOB 291155Z AUTO 01005KT 10SM CLR M05/M08 A3009 RMK AO2
KGNC - Seminole, Texas, USA
Distance from station: SE 55mi, 89km
Updated: Wed, 29-Jan-2020 4:55am MST
Clear
Clear
 Wind from calm
Wind: Calm
Temperature: 23°F , -5°C
Dew Point: 19°F , -7°C
Humidity: 86%
Barometer: 30.14 inHg , 1020.7 hPa
Clouds: Clear
Visibility: 10 miles , 16 km
2020/01/29 11:55 KGNC 291155Z AUTO 00000KT 10SM CLR M05/M07 A3014 RMK AO2 T10471072 10000 21048
 
KROW - Roswell, New Mexico, USA
Distance from station: W 67mi, 108km
Updated: Wed, 29-Jan-2020 4:51am MST
Clear
Clear
 Wind from calm
Wind: Calm
Temperature: 27°F , -3°C
Dew Point: 18°F , -8°C
Humidity: 69%
Barometer: 30.06 inHg , 1017.9 hPa
Clouds: Clear
Visibility: 10 miles , 16 km
2020/01/29 11:51 KROW 291151Z AUTO 00000KT 10SM CLR M03/M08 A3006 RMK AO2 SLP165 T10281078 10033 21039 58003
KATS - Artesia, New Mexico, USA
Distance from station: WSW 71mi, 114km
Updated: Wed, 29-Jan-2020 4:55am MST
Clear
Clear
 Wind from S
Wind: S 5 mph , 7 km/h
Temperature: 30°F , -1°C
Wind Chill: 25°F , -4°C
Dew Point: 19°F , -7°C
Humidity: 64%
Barometer: 30.09 inHg , 1019 hPa
Clouds: Clear
Visibility: 10 miles , 16 km
2020/01/29 11:55 KATS 291155Z AUTO 17004KT 10SM CLR M01/M07 A3009 RMK AO2
 
KCVS - Cannon AFB,Clovis, New Mexico, USA
Distance from station: 0 78mi, 125km
Updated: Wed, 29-Jan-2020 4:58am MST
Clear
Clear
 Wind from WNW
Wind: WNW 3 mph , 6 km/h
Temperature: 23°F , -5°C
Dew Point: 19°F , -7°C
Humidity: 86%
Barometer: 30.08 inHg , 1018.6 hPa
Clouds: Clear
Visibility: 10 miles , 16 km
2020/01/29 11:58 KCVS 291158Z AUTO 30003KT 10SM CLR M05/M07 A3008 RMK AO2 SLP195 T10491069 11023 21050 55004 $
KE11 - Andrews, Texas, USA
Distance from station: SE 78mi, 126km
Updated: Wed, 29-Jan-2020 4:55am MST
Clear
Clear
 Wind from NNW
Wind: NNW 3 mph , 6 km/h
Temperature: 27°F , -3°C
Dew Point: 21°F , -6°C
Humidity: 80%
Barometer: 30.11 inHg , 1019.6 hPa
Clouds: Clear
Visibility: 10 miles , 16 km
2020/01/29 11:55 KE11 291155Z AUTO 34003KT 10SM CLR M03/M06 A3011 RMK AO2 T10271062 10021 21027
 
KCNM - Carlsbad, New Mexico, USA
Distance from station: SW 82mi, 132km
Updated: Wed, 29-Jan-2020 4:53am MST
Clear
Clear
 Wind from S
Wind: S 5 mph , 7 km/h
Temperature: 27°F , -3°C
Wind Chill: 21°F , -6°C
Dew Point: 18°F , -8°C
Humidity: 69%
Barometer: 30.07 inHg , 1018.3 hPa
Clouds: Clear
Visibility: 10 miles , 16 km
2020/01/29 11:53 KCNM 291153Z AUTO 18004KT 10SM CLR M03/M08 A3007 RMK AO2 SLP174 T10281078 10033 21039 55005
KCVN - Clovis Muni, New Mexico, USA
Distance from station: N 83mi, 133km
Updated: Wed, 29-Jan-2020 4:56am MST
Clear
Clear
 Wind from W
Wind: W 7 mph , 11 km/h
Temperature: 19°F , -7°C
Wind Chill: 10°F , -12°C
Dew Point: 18°F , -8°C
Humidity: 93%
Barometer: 30.09 inHg , 1019 hPa
Clouds: Clear
Visibility: 10 miles , 16 km
2020/01/29 11:56 KCVN 291156Z AUTO 28006KT 10SM CLR M07/M08 A3009 RMK AO2 SLP208 T10671083 11022 21072 55003 FZRANO
 
KLBB - Lubbock, Texas, USA
Distance from station: ENE 92mi, 149km
Updated: Wed, 29-Jan-2020 4:53am MST
Clear
Clear
 Wind from NNW
Wind: NNW 6 mph , 9 km/h
Temperature: 25°F , -4°C
Wind Chill: 18°F , -8°C
Dew Point: 19°F , -7°C
Humidity: 80%
Barometer: 30.08 inHg , 1018.6 hPa
Clouds: Clear
Visibility: 10 miles , 16 km
2020/01/29 11:53 KLBB 291153Z 33005KT 10SM CLR M04/M07 A3008 RMK AO2 SLP191 T10441067 11011 21050 56003
KINK - Wink, Texas, USA
Distance from station: S 101mi, 163km
Updated: Wed, 29-Jan-2020 4:53am MST
Clear
Clear
 Wind from N
Wind: N 3 mph , 6 km/h
Temperature: 25°F , -4°C
Dew Point: 19°F , -7°C
Humidity: 80%
Barometer: 30.10 inHg , 1019.3 hPa
Clouds: Clear
Visibility: 10 miles , 16 km
2020/01/29 11:53 KINK 291153Z AUTO 35003KT 10SM CLR M04/M07 A3010 RMK AO2 SLP187 T10391072 10011 21039 58003
 
KMAF - Midland, Texas, USA
Distance from station: SE 111mi, 179km
Updated: Wed, 29-Jan-2020 4:53am MST
Clear
Clear
 Wind from N
Wind: N 6 mph , 9 km/h
Temperature: 28°F , -2°C
Wind Chill: 21°F , -6°C
Dew Point: 21°F , -6°C
Humidity: 74%
Barometer: 30.10 inHg , 1019.3 hPa
Clouds: Clear
Visibility: 10 miles , 16 km
2020/01/29 11:53 KMAF 291153Z 01005KT 10SM CLR M02/M06 A3010 RMK AO2 SLP187 T10221056 10028 21022 58002
KSRR - Sierra B/Ruidoso, New Mexico, USA
Distance from station: W 127mi, 204km
Updated: Wed, 29-Jan-2020 4:55am MST
Clear
Clear
 Wind from SSE
Wind: SSE 3 mph , 6 km/h
Temperature: 25°F , -4°C
Dew Point: 5°F , -15°C
Humidity: 42%
Barometer: 30.06 inHg , 1017.9 hPa
Clouds: Clear
Visibility: 10 miles , 16 km
2020/01/29 11:55 KSRR 291155Z AUTO 15003KT 10SM CLR M04/M15 A3006 RMK AO2
 
KGDP - Guadalupe Pass, Texas, USA
Distance from station: SW 130mi, 209km
Updated: Wed, 29-Jan-2020 4:51am MST
Clear
Clear
 Wind from NE
Wind: NE 13 mph , 20 km/h
Temperature: 39°F , 4°C
Wind Chill: 31°F , -1°C
Dew Point: 7°F , -14°C
Humidity: 26%
Barometer: 30.06 inHg , 1017.9 hPa
Clouds: Clear
Visibility: 10 miles , 16 km
2020/01/29 11:51 KGDP 291151Z AUTO 04011KT 10SM CLR 04/M14 A3006 RMK AO2 SLP160 T00391139 10050 20022 56010